LOW weather

Louisa County Airport/Freeman Field
Louisa, Virginia, United States

Public forecast

Using degrees Fahrenheit for public forecast. Weather courtesy of forecast.io.

Current aviation weather report (METAR) for Louisa County Airport/Freeman Field

Retrieved 2020/01/18 02:35 UTC (5 minutes ago):

KLKU 180235Z AUTO 00000KT 10SM CLR M04/M09 A3072 RMK AO2 T10431088

Closest aviation forecast (TAF) to Louisa County Airport/Freeman Field

Closest forecast is Charlottesville Albemarle Airport, 24.1 nm (44.6 km) WNW. Retrieved 2020-01-18 00:33 UTC (2 hours ago):

TAF KCHO 172330Z 1800/1824 VRB03KT P6SM SCT250 FM180300 00000KT P6SM BKN200 FM181500 18009KT P6SM -FZRAPL BKN080 FM181700 19010G17KT 5SM -FZRA OVC040 FM182000 20011KT 3SM -RA OVC020